sensor_id;sensor_type;location;lat;lon;timestamp;P1;durP1;ratioP1;P2;durP2;ratioP2
40591;SDS011;26301;42.832;23.918;2022-09-23T00:00:29;7.10;;;4.60;;
40591;SDS011;26301;42.832;23.918;2022-09-23T00:02:55;8.47;;;4.83;;
40591;SDS011;26301;42.832;23.918;2022-09-23T00:05:20;5.97;;;4.80;;
40591;SDS011;26301;42.832;23.918;2022-09-23T00:07:46;6.00;;;4.72;;
40591;SDS011;26301;42.832;23.918;2022-09-23T00:10:13;5.45;;;4.53;;
40591;SDS011;26301;42.832;23.918;2022-09-23T00:12:38;7.20;;;5.10;;
40591;SDS011;26301;42.832;23.918;2022-09-23T00:15:04;5.60;;;4.80;;
40591;SDS011;26301;42.832;23.918;2022-09-23T00:17:30;6.22;;;4.80;;
40591;SDS011;26301;42.832;23.918;2022-09-23T00:19:56;6.57;;;4.53;;
40591;SDS011;26301;42.832;23.918;2022-09-23T00:22:21;5.38;;;4.55;;
40591;SDS011;26301;42.832;23.918;2022-09-23T00:24:47;5.18;;;4.30;;
40591;SDS011;26301;42.832;23.918;2022-09-23T00:27:12;6.60;;;4.43;;
40591;SDS011;26301;42.832;23.918;2022-09-23T00:29:38;5.38;;;4.38;;
40591;SDS011;26301;42.832;23.918;2022-09-23T00:32:03;5.78;;;4.60;;
40591;SDS011;26301;42.832;23.918;2022-09-23T00:34:29;5.88;;;4.80;;
40591;SDS011;26301;42.832;23.918;2022-09-23T00:36:55;4.63;;;4.10;;
40591;SDS011;26301;42.832;23.918;2022-09-23T00:39:23;4.75;;;4.03;;
40591;SDS011;26301;42.832;23.918;2022-09-23T00:41:50;5.78;;;4.72;;
40591;SDS011;26301;42.832;23.918;2022-09-23T00:47:51;5.13;;;3.95;;
40591;SDS011;26301;42.832;23.918;2022-09-23T00:50:11;5.40;;;4.40;;
40591;SDS011;26301;42.832;23.918;2022-09-23T00:52:51;5.33;;;4.40;;
40591;SDS011;26301;42.832;23.918;2022-09-23T00:55:21;5.75;;;4.40;;
40591;SDS011;26301;42.832;23.918;2022-09-23T01:35:54;5.50;;;3.77;;
40591;SDS011;26301;42.832;23.918;2022-09-23T01:40:50;8.17;;;4.23;;
40591;SDS011;26301;42.832;23.918;2022-09-23T01:44:16;5.88;;;4.53;;
40591;SDS011;26301;42.832;23.918;2022-09-23T01:46:34;6.47;;;4.13;;
40591;SDS011;26301;42.832;23.918;2022-09-23T01:51:39;8.30;;;4.50;;
40591;SDS011;26301;42.832;23.918;2022-09-23T01:56:54;5.15;;;4.38;;
40591;SDS011;26301;42.832;23.918;2022-09-23T01:59:36;4.72;;;3.75;;
40591;SDS011;26301;42.832;23.918;2022-09-23T02:09:45;7.18;;;4.22;;
40591;SDS011;26301;42.832;23.918;2022-09-23T02:12:16;4.47;;;3.47;;
40591;SDS011;26301;42.832;23.918;2022-09-23T02:14:48;5.90;;;4.00;;
40591;SDS011;26301;42.832;23.918;2022-09-23T02:17:15;5.63;;;3.73;;
40591;SDS011;26301;42.832;23.918;2022-09-23T02:19:50;5.63;;;3.63;;
40591;SDS011;26301;42.832;23.918;2022-09-23T02:22:22;5.50;;;4.07;;
40591;SDS011;26301;42.832;23.918;2022-09-23T02:24:54;4.60;;;3.40;;
40591;SDS011;26301;42.832;23.918;2022-09-23T02:27:23;4.80;;;3.27;;
40591;SDS011;26301;42.832;23.918;2022-09-23T02:37:57;4.60;;;3.33;;
40591;SDS011;26301;42.832;23.918;2022-09-23T02:45:57;4.80;;;3.67;;
40591;SDS011;26301;42.832;23.918;2022-09-23T02:48:28;5.00;;;3.90;;
40591;SDS011;26301;42.832;23.918;2022-09-23T02:50:59;4.97;;;3.97;;
40591;SDS011;26301;42.832;23.918;2022-09-23T02:53:27;4.80;;;3.50;;
40591;SDS011;26301;42.832;23.918;2022-09-23T02:55:57;5.00;;;4.27;;
40591;SDS011;26301;42.832;23.918;2022-09-23T02:58:23;4.60;;;3.63;;
40591;SDS011;26301;42.832;23.918;2022-09-23T03:00:58;5.00;;;3.63;;
40591;SDS011;26301;42.832;23.918;2022-09-23T03:03:43;4.67;;;3.40;;
40591;SDS011;26301;42.832;23.918;2022-09-23T03:09:21;4.90;;;3.80;;
40591;SDS011;26301;42.832;23.918;2022-09-23T03:12:06;7.27;;;4.00;;
40591;SDS011;26301;42.832;23.918;2022-09-23T03:17:30;6.27;;;4.13;;
40591;SDS011;26301;42.832;23.918;2022-09-23T03:22:57;5.10;;;3.80;;
40591;SDS011;26301;42.832;23.918;2022-09-23T03:25:27;4.70;;;3.60;;
40591;SDS011;26301;42.832;23.918;2022-09-23T03:27:56;5.37;;;4.33;;
40591;SDS011;26301;42.832;23.918;2022-09-23T03:30:25;5.63;;;3.87;;
40591;SDS011;26301;42.832;23.918;2022-09-23T03:32:51;4.93;;;4.03;;
40591;SDS011;26301;42.832;23.918;2022-09-23T03:35:19;5.67;;;4.13;;
40591;SDS011;26301;42.832;23.918;2022-09-23T03:37:48;4.90;;;4.00;;
40591;SDS011;26301;42.832;23.918;2022-09-23T03:40:23;4.70;;;3.50;;
40591;SDS011;26301;42.832;23.918;2022-09-23T03:42:52;5.77;;;4.17;;
40591;SDS011;26301;42.832;23.918;2022-09-23T03:45:21;10.30;;;4.70;;
40591;SDS011;26301;42.832;23.918;2022-09-23T03:47:50;5.30;;;4.40;;
40591;SDS011;26301;42.832;23.918;2022-09-23T03:50:16;5.87;;;4.00;;
40591;SDS011;26301;42.832;23.918;2022-09-23T03:52:42;7.03;;;4.43;;
40591;SDS011;26301;42.832;23.918;2022-09-23T03:55:07;6.20;;;4.47;;
40591;SDS011;26301;42.832;23.918;2022-09-23T03:57:34;6.03;;;4.47;;
40591;SDS011;26301;42.832;23.918;2022-09-23T03:59:59;7.00;;;4.60;;
40591;SDS011;26301;42.832;23.918;2022-09-23T04:02:25;5.40;;;4.20;;
40591;SDS011;26301;42.832;23.918;2022-09-23T04:04:51;5.93;;;4.57;;
40591;SDS011;26301;42.832;23.918;2022-09-23T04:07:16;6.80;;;4.90;;
40591;SDS011;26301;42.832;23.918;2022-09-23T04:09:42;7.10;;;5.47;;
40591;SDS011;26301;42.832;23.918;2022-09-23T04:12:12;6.73;;;4.93;;
40591;SDS011;26301;42.832;23.918;2022-09-23T04:14:39;6.13;;;4.70;;
40591;SDS011;26301;42.832;23.918;2022-09-23T04:17:04;7.73;;;5.73;;
40591;SDS011;26301;42.832;23.918;2022-09-23T04:19:30;7.90;;;5.57;;
40591;SDS011;26301;42.832;23.918;2022-09-23T04:21:55;7.73;;;5.53;;
40591;SDS011;26301;42.832;23.918;2022-09-23T04:24:21;6.83;;;4.97;;
40591;SDS011;26301;42.832;23.918;2022-09-23T04:26:49;10.00;;;5.33;;
40591;SDS011;26301;42.832;23.918;2022-09-23T04:29:16;7.73;;;5.27;;
40591;SDS011;26301;42.832;23.918;2022-09-23T04:31:42;6.20;;;5.13;;
40591;SDS011;26301;42.832;23.918;2022-09-23T04:34:08;7.90;;;5.70;;
40591;SDS011;26301;42.832;23.918;2022-09-23T04:36:34;8.00;;;5.43;;
40591;SDS011;26301;42.832;23.918;2022-09-23T04:38:59;5.83;;;4.70;;
40591;SDS011;26301;42.832;23.918;2022-09-23T04:41:25;10.80;;;7.03;;
40591;SDS011;26301;42.832;23.918;2022-09-23T04:43:51;6.93;;;5.20;;
40591;SDS011;26301;42.832;23.918;2022-09-23T04:46:17;6.33;;;4.80;;
40591;SDS011;26301;42.832;23.918;2022-09-23T04:48:42;7.00;;;5.57;;
40591;SDS011;26301;42.832;23.918;2022-09-23T04:51:15;6.10;;;4.67;;
40591;SDS011;26301;42.832;23.918;2022-09-23T04:53:43;6.27;;;5.23;;
40591;SDS011;26301;42.832;23.918;2022-09-23T04:56:11;6.13;;;5.07;;
40591;SDS011;26301;42.832;23.918;2022-09-23T04:58:38;10.53;;;5.03;;
40591;SDS011;26301;42.832;23.918;2022-09-23T05:01:09;7.68;;;5.60;;
40591;SDS011;26301;42.832;23.918;2022-09-23T05:03:56;9.27;;;5.65;;
40591;SDS011;26301;42.832;23.918;2022-09-23T05:06:26;8.60;;;6.83;;
40591;SDS011;26301;42.832;23.918;2022-09-23T05:08:54;9.77;;;6.37;;
40591;SDS011;26301;42.832;23.918;2022-09-23T05:11:20;6.93;;;5.60;;
40591;SDS011;26301;42.832;23.918;2022-09-23T05:13:48;10.93;;;6.20;;
40591;SDS011;26301;42.832;23.918;2022-09-23T05:16:15;7.53;;;5.80;;
40591;SDS011;26301;42.832;23.918;2022-09-23T05:18:41;7.03;;;5.47;;
40591;SDS011;26301;42.832;23.918;2022-09-23T05:21:08;6.28;;;4.85;;
40591;SDS011;26301;42.832;23.918;2022-09-23T05:23:35;6.67;;;5.40;;
40591;SDS011;26301;42.832;23.918;2022-09-23T05:26:04;8.60;;;5.50;;
40591;SDS011;26301;42.832;23.918;2022-09-23T05:28:31;8.18;;;5.47;;
40591;SDS011;26301;42.832;23.918;2022-09-23T05:31:01;6.82;;;5.38;;
40591;SDS011;26301;42.832;23.918;2022-09-23T05:33:39;7.27;;;5.30;;
40591;SDS011;26301;42.832;23.918;2022-09-23T05:36:05;10.20;;;5.50;;
40591;SDS011;26301;42.832;23.918;2022-09-23T05:38:32;8.98;;;5.70;;
40591;SDS011;26301;42.832;23.918;2022-09-23T05:40:59;7.05;;;5.70;;
40591;SDS011;26301;42.832;23.918;2022-09-23T05:43:26;8.75;;;6.28;;
40591;SDS011;26301;42.832;23.918;2022-09-23T05:48:29;8.10;;;6.10;;
40591;SDS011;26301;42.832;23.918;2022-09-23T05:50:55;9.25;;;5.72;;
40591;SDS011;26301;42.832;23.918;2022-09-23T05:53:21;7.05;;;5.72;;
40591;SDS011;26301;42.832;23.918;2022-09-23T05:55:46;7.18;;;4.90;;
40591;SDS011;26301;42.832;23.918;2022-09-23T05:58:12;6.72;;;5.50;;
40591;SDS011;26301;42.832;23.918;2022-09-23T06:00:41;18.95;;;11.10;;
40591;SDS011;26301;42.832;23.918;2022-09-23T06:03:17;7.70;;;5.70;;
40591;SDS011;26301;42.832;23.918;2022-09-23T06:05:43;6.57;;;4.32;;
40591;SDS011;26301;42.832;23.918;2022-09-23T06:08:10;5.20;;;3.30;;
40591;SDS011;26301;42.832;23.918;2022-09-23T06:10:39;3.33;;;2.55;;
40591;SDS011;26301;42.832;23.918;2022-09-23T06:13:06;4.32;;;3.00;;
40591;SDS011;26301;42.832;23.918;2022-09-23T06:15:33;4.18;;;3.20;;
40591;SDS011;26301;42.832;23.918;2022-09-23T06:17:59;4.13;;;2.95;;
40591;SDS011;26301;42.832;23.918;2022-09-23T06:20:25;3.95;;;2.95;;
40591;SDS011;26301;42.832;23.918;2022-09-23T06:22:51;4.55;;;3.00;;
40591;SDS011;26301;42.832;23.918;2022-09-23T06:25:17;4.22;;;2.90;;
40591;SDS011;26301;42.832;23.918;2022-09-23T06:27:43;3.72;;;2.95;;
40591;SDS011;26301;42.832;23.918;2022-09-23T06:30:18;4.18;;;3.03;;
40591;SDS011;26301;42.832;23.918;2022-09-23T06:32:50;3.45;;;3.00;;
40591;SDS011;26301;42.832;23.918;2022-09-23T06:35:17;4.88;;;2.72;;
40591;SDS011;26301;42.832;23.918;2022-09-23T06:37:44;4.35;;;2.47;;
40591;SDS011;26301;42.832;23.918;2022-09-23T06:40:10;4.40;;;2.50;;
40591;SDS011;26301;42.832;23.918;2022-09-23T06:42:40;3.78;;;2.22;;
40591;SDS011;26301;42.832;23.918;2022-09-23T06:45:06;3.13;;;2.60;;
40591;SDS011;26301;42.832;23.918;2022-09-23T06:47:32;3.25;;;2.45;;
40591;SDS011;26301;42.832;23.918;2022-09-23T06:49:57;5.35;;;2.60;;
40591;SDS011;26301;42.832;23.918;2022-09-23T06:52:23;13.27;;;5.70;;
40591;SDS011;26301;42.832;23.918;2022-09-23T06:54:49;12.75;;;6.90;;
40591;SDS011;26301;42.832;23.918;2022-09-23T06:57:14;4.50;;;3.08;;
40591;SDS011;26301;42.832;23.918;2022-09-23T06:59:40;5.35;;;2.20;;
40591;SDS011;26301;42.832;23.918;2022-09-23T07:02:07;7.68;;;2.58;;
40591;SDS011;26301;42.832;23.918;2022-09-23T07:04:33;3.95;;;2.85;;
40591;SDS011;26301;42.832;23.918;2022-09-23T07:06:59;3.25;;;2.20;;
40591;SDS011;26301;42.832;23.918;2022-09-23T07:09:24;2.03;;;1.42;;
40591;SDS011;26301;42.832;23.918;2022-09-23T07:11:50;4.40;;;1.73;;
40591;SDS011;26301;42.832;23.918;2022-09-23T07:14:15;1.63;;;1.30;;
40591;SDS011;26301;42.832;23.918;2022-09-23T07:16:41;2.20;;;1.42;;
40591;SDS011;26301;42.832;23.918;2022-09-23T07:19:06;2.80;;;1.83;;
40591;SDS011;26301;42.832;23.918;2022-09-23T07:21:31;2.28;;;1.65;;
40591;SDS011;26301;42.832;23.918;2022-09-23T07:24:00;3.00;;;1.60;;
40591;SDS011;26301;42.832;23.918;2022-09-23T07:26:25;2.55;;;1.73;;
40591;SDS011;26301;42.832;23.918;2022-09-23T07:28:52;2.42;;;1.73;;
40591;SDS011;26301;42.832;23.918;2022-09-23T07:31:19;3.10;;;2.10;;
40591;SDS011;26301;42.832;23.918;2022-09-23T07:33:44;2.75;;;1.80;;
40591;SDS011;26301;42.832;23.918;2022-09-23T07:51:58;2.45;;;1.77;;
40591;SDS011;26301;42.832;23.918;2022-09-23T07:54:23;2.63;;;1.83;;
40591;SDS011;26301;42.832;23.918;2022-09-23T07:56:53;2.50;;;1.73;;
40591;SDS011;26301;42.832;23.918;2022-09-23T07:59:19;2.65;;;2.00;;
40591;SDS011;26301;42.832;23.918;2022-09-23T08:01:45;2.45;;;1.80;;
40591;SDS011;26301;42.832;23.918;2022-09-23T08:06:48;2.78;;;1.90;;
40591;SDS011;26301;42.832;23.918;2022-09-23T08:09:16;1.70;;;1.35;;
40591;SDS011;26301;42.832;23.918;2022-09-23T08:11:43;2.67;;;1.50;;
40591;SDS011;26301;42.832;23.918;2022-09-23T08:14:12;2.78;;;1.80;;
40591;SDS011;26301;42.832;23.918;2022-09-23T08:16:39;2.40;;;1.23;;
40591;SDS011;26301;42.832;23.918;2022-09-23T08:19:06;2.47;;;1.02;;
40591;SDS011;26301;42.832;23.918;2022-09-23T08:21:32;1.38;;;1.13;;
40591;SDS011;26301;42.832;23.918;2022-09-23T08:23:58;1.73;;;1.10;;
40591;SDS011;26301;42.832;23.918;2022-09-23T08:26:23;5.97;;;2.03;;
40591;SDS011;26301;42.832;23.918;2022-09-23T08:28:49;1.38;;;0.90;;
40591;SDS011;26301;42.832;23.918;2022-09-23T08:31:22;0.98;;;0.80;;
40591;SDS011;26301;42.832;23.918;2022-09-23T08:33:57;1.08;;;0.82;;
40591;SDS011;26301;42.832;23.918;2022-09-23T08:36:23;3.42;;;0.93;;
40591;SDS011;26301;42.832;23.918;2022-09-23T08:38:50;2.50;;;1.00;;
40591;SDS011;26301;42.832;23.918;2022-09-23T08:41:19;0.70;;;0.70;;
40591;SDS011;26301;42.832;23.918;2022-09-23T08:43:55;1.30;;;0.90;;
40591;SDS011;26301;42.832;23.918;2022-09-23T08:46:27;1.05;;;0.60;;
40591;SDS011;26301;42.832;23.918;2022-09-23T08:48:57;1.30;;;0.90;;
40591;SDS011;26301;42.832;23.918;2022-09-23T08:51:28;1.08;;;0.85;;
40591;SDS011;26301;42.832;23.918;2022-09-23T08:53:59;1.42;;;0.82;;
40591;SDS011;26301;42.832;23.918;2022-09-23T08:56:25;1.00;;;0.90;;
40591;SDS011;26301;42.832;23.918;2022-09-23T09:06:25;1.58;;;0.90;;
40591;SDS011;26301;42.832;23.918;2022-09-23T09:09:01;1.95;;;1.25;;
40591;SDS011;26301;42.832;23.918;2022-09-23T09:11:39;2.95;;;0.80;;
40591;SDS011;26301;42.832;23.918;2022-09-23T09:16:46;1.48;;;0.90;;
40591;SDS011;26301;42.832;23.918;2022-09-23T09:19:20;0.98;;;0.80;;
40591;SDS011;26301;42.832;23.918;2022-09-23T09:21:58;1.63;;;0.82;;
40591;SDS011;26301;42.832;23.918;2022-09-23T09:24:29;0.90;;;0.75;;
40591;SDS011;26301;42.832;23.918;2022-09-23T09:26:59;3.33;;;2.03;;
40591;SDS011;26301;42.832;23.918;2022-09-23T09:29:34;8.68;;;4.93;;
40591;SDS011;26301;42.832;23.918;2022-09-23T09:32:27;21.13;;;14.85;;
40591;SDS011;26301;42.832;23.918;2022-09-23T09:35:24;4.30;;;3.05;;
40591;SDS011;26301;42.832;23.918;2022-09-23T09:38:02;1.42;;;1.02;;
40591;SDS011;26301;42.832;23.918;2022-09-23T09:40:29;2.05;;;1.45;;
40591;SDS011;26301;42.832;23.918;2022-09-23T09:42:55;3.05;;;2.22;;
40591;SDS011;26301;42.832;23.918;2022-09-23T09:50:53;3.30;;;3.00;;
40591;SDS011;26301;42.832;23.918;2022-09-23T09:56:09;2.60;;;1.92;;
40591;SDS011;26301;42.832;23.918;2022-09-23T10:01:17;1.00;;;0.90;;
40591;SDS011;26301;42.832;23.918;2022-09-23T10:03:51;0.80;;;0.80;;
40591;SDS011;26301;42.832;23.918;2022-09-23T10:06:23;0.88;;;0.73;;
40591;SDS011;26301;42.832;23.918;2022-09-23T10:09:10;1.60;;;1.20;;
40591;SDS011;26301;42.832;23.918;2022-09-23T10:11:39;0.88;;;0.88;;
40591;SDS011;26301;42.832;23.918;2022-09-23T10:14:12;1.08;;;0.98;;
40591;SDS011;26301;42.832;23.918;2022-09-23T10:16:43;2.00;;;1.08;;
40591;SDS011;26301;42.832;23.918;2022-09-23T10:21:51;3.08;;;1.17;;
40591;SDS011;26301;42.832;23.918;2022-09-23T10:24:25;1.52;;;1.02;;
40591;SDS011;26301;42.832;23.918;2022-09-23T10:27:08;1.80;;;1.15;;
40591;SDS011;26301;42.832;23.918;2022-09-23T10:29:39;1.15;;;1.02;;
40591;SDS011;26301;42.832;23.918;2022-09-23T10:34:56;2.88;;;0.80;;
40591;SDS011;26301;42.832;23.918;2022-09-23T10:39:52;1.08;;;0.90;;
40591;SDS011;26301;42.832;23.918;2022-09-23T10:45:37;1.38;;;1.00;;
40591;SDS011;26301;42.832;23.918;2022-09-23T10:48:32;1.10;;;0.90;;
40591;SDS011;26301;42.832;23.918;2022-09-23T10:51:13;2.78;;;1.63;;
40591;SDS011;26301;42.832;23.918;2022-09-23T11:02:07;1.95;;;1.00;;
40591;SDS011;26301;42.832;23.918;2022-09-23T11:10:30;1.92;;;1.00;;
40591;SDS011;26301;42.832;23.918;2022-09-23T11:13:22;1.02;;;0.70;;
40591;SDS011;26301;42.832;23.918;2022-09-23T11:26:52;0.85;;;0.70;;
40591;SDS011;26301;42.832;23.918;2022-09-23T11:29:28;0.88;;;0.75;;
40591;SDS011;26301;42.832;23.918;2022-09-23T11:37:39;0.65;;;0.65;;
40591;SDS011;26301;42.832;23.918;2022-09-23T11:40:14;3.55;;;0.90;;
40591;SDS011;26301;42.832;23.918;2022-09-23T11:43:10;1.70;;;1.05;;
40591;SDS011;26301;42.832;23.918;2022-09-23T11:45:50;0.85;;;0.70;;
40591;SDS011;26301;42.832;23.918;2022-09-23T11:48:20;1.10;;;1.00;;
40591;SDS011;26301;42.832;23.918;2022-09-23T11:50:58;1.33;;;0.90;;
40591;SDS011;26301;42.832;23.918;2022-09-23T11:56:15;3.47;;;2.20;;
40591;SDS011;26301;42.832;23.918;2022-09-23T11:58:56;1.10;;;0.90;;
40591;SDS011;26301;42.832;23.918;2022-09-23T12:01:31;1.48;;;1.00;;
40591;SDS011;26301;42.832;23.918;2022-09-23T12:04:08;2.63;;;1.30;;
40591;SDS011;26301;42.832;23.918;2022-09-23T12:06:47;2.55;;;1.38;;
40591;SDS011;26301;42.832;23.918;2022-09-23T12:12:34;13.25;;;8.10;;
40591;SDS011;26301;42.832;23.918;2022-09-23T12:28:05;1.30;;;0.82;;
40591;SDS011;26301;42.832;23.918;2022-09-23T12:30:37;1.65;;;0.70;;
40591;SDS011;26301;42.832;23.918;2022-09-23T12:35:39;1.58;;;0.70;;
40591;SDS011;26301;42.832;23.918;2022-09-23T12:38:18;1.05;;;0.95;;
40591;SDS011;26301;42.832;23.918;2022-09-23T12:40:50;1.33;;;0.90;;
40591;SDS011;26301;42.832;23.918;2022-09-23T12:43:27;4.65;;;2.45;;
40591;SDS011;26301;42.832;23.918;2022-09-23T12:46:15;1.65;;;0.90;;
40591;SDS011;26301;42.832;23.918;2022-09-23T12:48:46;1.80;;;1.60;;
40591;SDS011;26301;42.832;23.918;2022-09-23T12:51:28;0.70;;;0.70;;
40591;SDS011;26301;42.832;23.918;2022-09-23T12:56:27;1.00;;;0.90;;
40591;SDS011;26301;42.832;23.918;2022-09-23T13:01:54;1.15;;;0.70;;
40591;SDS011;26301;42.832;23.918;2022-09-23T13:04:33;1.08;;;0.70;;
40591;SDS011;26301;42.832;23.918;2022-09-23T13:07:28;2.72;;;0.80;;
40591;SDS011;26301;42.832;23.918;2022-09-23T13:12:38;1.05;;;0.80;;
40591;SDS011;26301;42.832;23.918;2022-09-23T13:15:23;1.52;;;1.38;;
40591;SDS011;26301;42.832;23.918;2022-09-23T13:20:45;1.20;;;0.90;;
40591;SDS011;26301;42.832;23.918;2022-09-23T13:23:25;3.38;;;1.10;;
40591;SDS011;26301;42.832;23.918;2022-09-23T13:25:55;1.88;;;1.13;;
40591;SDS011;26301;42.832;23.918;2022-09-23T13:28:33;0.90;;;0.82;;
40591;SDS011;26301;42.832;23.918;2022-09-23T13:31:11;1.95;;;1.00;;
40591;SDS011;26301;42.832;23.918;2022-09-23T13:33:41;1.60;;;1.15;;
40591;SDS011;26301;42.832;23.918;2022-09-23T13:36:11;1.55;;;0.95;;
40591;SDS011;26301;42.832;23.918;2022-09-23T13:38:39;2.83;;;1.60;;
40591;SDS011;26301;42.832;23.918;2022-09-23T13:41:10;1.42;;;1.00;;
40591;SDS011;26301;42.832;23.918;2022-09-23T13:43:42;1.75;;;0.80;;
40591;SDS011;26301;42.832;23.918;2022-09-23T13:46:12;0.95;;;0.80;;
40591;SDS011;26301;42.832;23.918;2022-09-23T13:48:42;4.50;;;1.20;;
40591;SDS011;26301;42.832;23.918;2022-09-23T13:51:10;2.25;;;1.48;;
40591;SDS011;26301;42.832;23.918;2022-09-23T13:53:44;4.20;;;2.20;;
40591;SDS011;26301;42.832;23.918;2022-09-23T13:56:17;1.00;;;0.90;;
40591;SDS011;26301;42.832;23.918;2022-09-23T13:58:43;1.35;;;0.93;;
40591;SDS011;26301;42.832;23.918;2022-09-23T14:01:14;3.03;;;0.82;;
40591;SDS011;26301;42.832;23.918;2022-09-23T14:03:53;1.33;;;1.08;;
40591;SDS011;26301;42.832;23.918;2022-09-23T14:06:19;1.10;;;1.00;;
40591;SDS011;26301;42.832;23.918;2022-09-23T14:08:46;1.92;;;1.20;;
40591;SDS011;26301;42.832;23.918;2022-09-23T14:11:17;1.20;;;1.10;;
40591;SDS011;26301;42.832;23.918;2022-09-23T14:13:47;3.38;;;2.42;;
40591;SDS011;26301;42.832;23.918;2022-09-23T14:16:19;1.92;;;1.25;;
40591;SDS011;26301;42.832;23.918;2022-09-23T14:18:49;1.27;;;0.93;;
40591;SDS011;26301;42.832;23.918;2022-09-23T14:21:40;2.70;;;1.25;;
40591;SDS011;26301;42.832;23.918;2022-09-23T14:29:40;1.85;;;1.02;;
40591;SDS011;26301;42.832;23.918;2022-09-23T14:32:15;1.60;;;1.00;;
40591;SDS011;26301;42.832;23.918;2022-09-23T14:40:02;2.97;;;1.48;;
40591;SDS011;26301;42.832;23.918;2022-09-23T14:42:30;1.77;;;1.20;;
40591;SDS011;26301;42.832;23.918;2022-09-23T14:45:03;1.88;;;1.08;;
40591;SDS011;26301;42.832;23.918;2022-09-23T14:47:30;1.27;;;0.80;;
40591;SDS011;26301;42.832;23.918;2022-09-23T14:49:57;3.45;;;1.60;;
40591;SDS011;26301;42.832;23.918;2022-09-23T14:52:51;8.85;;;4.68;;
40591;SDS011;26301;42.832;23.918;2022-09-23T14:55:17;7.25;;;4.13;;
40591;SDS011;26301;42.832;23.918;2022-09-23T14:57:42;5.43;;;2.95;;
40591;SDS011;26301;42.832;23.918;2022-09-23T15:00:16;7.07;;;1.65;;
40591;SDS011;26301;42.832;23.918;2022-09-23T15:03:01;2.95;;;1.70;;
40591;SDS011;26301;42.832;23.918;2022-09-23T15:05:41;2.63;;;1.33;;
40591;SDS011;26301;42.832;23.918;2022-09-23T15:08:10;1.63;;;1.08;;
40591;SDS011;26301;42.832;23.918;2022-09-23T15:10:41;1.50;;;0.90;;
40591;SDS011;26301;42.832;23.918;2022-09-23T15:13:07;3.60;;;1.40;;
40591;SDS011;26301;42.832;23.918;2022-09-23T15:15:38;2.72;;;1.70;;
40591;SDS011;26301;42.832;23.918;2022-09-23T15:18:22;4.68;;;2.03;;
40591;SDS011;26301;42.832;23.918;2022-09-23T15:20:50;2.00;;;1.40;;
40591;SDS011;26301;42.832;23.918;2022-09-23T15:26:19;1.60;;;1.20;;
40591;SDS011;26301;42.832;23.918;2022-09-23T15:28:46;2.30;;;1.67;;
40591;SDS011;26301;42.832;23.918;2022-09-23T15:31:14;1.52;;;1.25;;
40591;SDS011;26301;42.832;23.918;2022-09-23T15:33:45;1.60;;;1.30;;
40591;SDS011;26301;42.832;23.918;2022-09-23T15:36:24;3.00;;;2.00;;
40591;SDS011;26301;42.832;23.918;2022-09-23T15:38:52;16.80;;;12.05;;
40591;SDS011;26301;42.832;23.918;2022-09-23T15:41:21;20.35;;;13.48;;
40591;SDS011;26301;42.832;23.918;2022-09-23T15:43:48;9.95;;;6.15;;
40591;SDS011;26301;42.832;23.918;2022-09-23T15:46:23;8.75;;;5.22;;
40591;SDS011;26301;42.832;23.918;2022-09-23T15:48:55;6.80;;;2.90;;
40591;SDS011;26301;42.832;23.918;2022-09-23T15:51:25;3.42;;;2.45;;
40591;SDS011;26301;42.832;23.918;2022-09-23T15:53:51;4.18;;;2.22;;
40591;SDS011;26301;42.832;23.918;2022-09-23T15:56:19;2.88;;;1.73;;
40591;SDS011;26301;42.832;23.918;2022-09-23T15:58:48;2.08;;;1.38;;
40591;SDS011;26301;42.832;23.918;2022-09-23T16:01:16;5.03;;;1.88;;
40591;SDS011;26301;42.832;23.918;2022-09-23T16:03:49;2.75;;;1.30;;
40591;SDS011;26301;42.832;23.918;2022-09-23T16:06:15;2.08;;;1.45;;
40591;SDS011;26301;42.832;23.918;2022-09-23T16:08:40;3.55;;;1.65;;
40591;SDS011;26301;42.832;23.918;2022-09-23T16:11:28;2.05;;;1.60;;
40591;SDS011;26301;42.832;23.918;2022-09-23T16:13:58;3.72;;;2.15;;
40591;SDS011;26301;42.832;23.918;2022-09-23T16:16:27;5.10;;;3.22;;
40591;SDS011;26301;42.832;23.918;2022-09-23T16:18:53;10.48;;;4.18;;
40591;SDS011;26301;42.832;23.918;2022-09-23T16:21:20;6.10;;;3.70;;
40591;SDS011;26301;42.832;23.918;2022-09-23T16:23:49;8.25;;;3.63;;
40591;SDS011;26301;42.832;23.918;2022-09-23T16:26:19;8.05;;;3.85;;
40591;SDS011;26301;42.832;23.918;2022-09-23T16:31:14;8.20;;;4.93;;
40591;SDS011;26301;42.832;23.918;2022-09-23T16:33:46;7.45;;;3.58;;
40591;SDS011;26301;42.832;23.918;2022-09-23T16:38:59;6.45;;;4.25;;
40591;SDS011;26301;42.832;23.918;2022-09-23T16:41:27;7.50;;;4.85;;
40591;SDS011;26301;42.832;23.918;2022-09-23T16:43:55;4.88;;;3.53;;
40591;SDS011;26301;42.832;23.918;2022-09-23T16:46:21;4.78;;;3.35;;
40591;SDS011;26301;42.832;23.918;2022-09-23T16:48:48;5.63;;;3.20;;
40591;SDS011;26301;42.832;23.918;2022-09-23T16:51:20;4.78;;;3.30;;
40591;SDS011;26301;42.832;23.918;2022-09-23T16:53:48;5.35;;;3.45;;
40591;SDS011;26301;42.832;23.918;2022-09-23T16:56:19;6.35;;;3.00;;
40591;SDS011;26301;42.832;23.918;2022-09-23T16:58:49;4.60;;;2.70;;
40591;SDS011;26301;42.832;23.918;2022-09-23T17:01:24;3.10;;;2.30;;
40591;SDS011;26301;42.832;23.918;2022-09-23T17:04:11;4.25;;;2.50;;
40591;SDS011;26301;42.832;23.918;2022-09-23T17:06:47;4.90;;;2.60;;
40591;SDS011;26301;42.832;23.918;2022-09-23T17:09:14;4.97;;;2.67;;
40591;SDS011;26301;42.832;23.918;2022-09-23T17:11:42;7.50;;;4.72;;
40591;SDS011;26301;42.832;23.918;2022-09-23T17:14:10;4.15;;;3.10;;
40591;SDS011;26301;42.832;23.918;2022-09-23T17:16:36;3.17;;;2.40;;
40591;SDS011;26301;42.832;23.918;2022-09-23T17:19:05;3.78;;;2.63;;
40591;SDS011;26301;42.832;23.918;2022-09-23T17:21:32;3.38;;;2.50;;
40591;SDS011;26301;42.832;23.918;2022-09-23T17:23:58;3.75;;;2.92;;
40591;SDS011;26301;42.832;23.918;2022-09-23T17:26:24;8.00;;;4.80;;
40591;SDS011;26301;42.832;23.918;2022-09-23T17:28:51;7.65;;;5.00;;
40591;SDS011;26301;42.832;23.918;2022-09-23T17:31:18;8.10;;;4.60;;
40591;SDS011;26301;42.832;23.918;2022-09-23T17:33:46;4.93;;;3.70;;
40591;SDS011;26301;42.832;23.918;2022-09-23T17:36:12;3.80;;;2.83;;
40591;SDS011;26301;42.832;23.918;2022-09-23T17:38:41;4.75;;;4.20;;
40591;SDS011;26301;42.832;23.918;2022-09-23T17:41:07;5.60;;;2.78;;
40591;SDS011;26301;42.832;23.918;2022-09-23T17:43:33;4.35;;;2.78;;
40591;SDS011;26301;42.832;23.918;2022-09-23T17:46:04;3.88;;;2.90;;
40591;SDS011;26301;42.832;23.918;2022-09-23T17:48:32;4.93;;;2.53;;
40591;SDS011;26301;42.832;23.918;2022-09-23T17:51:00;5.28;;;2.58;;
40591;SDS011;26301;42.832;23.918;2022-09-23T17:53:29;3.90;;;2.25;;
40591;SDS011;26301;42.832;23.918;2022-09-23T17:55:59;3.08;;;2.38;;
40591;SDS011;26301;42.832;23.918;2022-09-23T17:58:32;3.85;;;2.03;;
40591;SDS011;26301;42.832;23.918;2022-09-23T18:00:59;3.33;;;2.60;;
40591;SDS011;26301;42.832;23.918;2022-09-23T18:03:25;2.70;;;2.13;;
40591;SDS011;26301;42.832;23.918;2022-09-23T18:05:52;4.65;;;2.90;;
40591;SDS011;26301;42.832;23.918;2022-09-23T18:08:19;3.63;;;2.42;;
40591;SDS011;26301;42.832;23.918;2022-09-23T18:10:44;4.57;;;2.80;;
40591;SDS011;26301;42.832;23.918;2022-09-23T18:13:10;5.50;;;2.90;;
40591;SDS011;26301;42.832;23.918;2022-09-23T18:15:36;5.07;;;2.58;;
40591;SDS011;26301;42.832;23.918;2022-09-23T18:18:03;3.13;;;2.30;;
40591;SDS011;26301;42.832;23.918;2022-09-23T18:20:30;7.03;;;2.60;;
40591;SDS011;26301;42.832;23.918;2022-09-23T18:22:55;2.92;;;2.40;;
40591;SDS011;26301;42.832;23.918;2022-09-23T18:25:21;2.80;;;2.22;;